createdAt,value
2023-01-25T00:00:55.592Z,16.37
2023-01-25T00:03:23.465Z,15.23
2023-01-25T00:06:00.453Z,16.20
2023-01-25T00:08:28.573Z,15.43
2023-01-25T00:10:58.477Z,16.43
2023-01-25T00:13:26.576Z,15.63
2023-01-25T00:16:01.588Z,16.50
2023-01-25T00:18:31.760Z,15.90
2023-01-25T00:20:59.979Z,16.87
2023-01-25T00:23:27.891Z,15.37
2023-01-25T00:25:58.798Z,14.63
2023-01-25T00:28:27.037Z,15.67
2023-01-25T00:31:00.212Z,17.33
2023-01-25T00:33:39.930Z,15.57
2023-01-25T00:36:29.211Z,16.07
2023-01-25T00:38:58.744Z,15.40
2023-01-25T00:41:26.668Z,15.60
2023-01-25T00:43:54.719Z,15.90
2023-01-25T00:46:24.637Z,15.73
2023-01-25T00:48:54.717Z,14.60
2023-01-25T00:51:22.916Z,15.47
2023-01-25T00:53:53.471Z,14.77
2023-01-25T00:56:22.236Z,16.03
2023-01-25T00:58:50.239Z,14.70
2023-01-25T01:01:21.400Z,14.60
2023-01-25T01:03:53.006Z,14.50
2023-01-25T01:06:21.014Z,15.93
2023-01-25T01:08:49.443Z,15.40
2023-01-25T01:11:17.377Z,15.03
2023-01-25T01:13:45.415Z,15.03
2023-01-25T01:16:14.336Z,15.20
2023-01-25T01:18:43.925Z,14.97
2023-01-25T01:21:14.677Z,15.37
2023-01-25T01:23:42.822Z,15.07
2023-01-25T01:26:13.779Z,15.70
2023-01-25T01:28:42.659Z,14.43
2023-01-25T01:31:14.353Z,15.60
2023-01-25T01:33:50.251Z,14.67
2023-01-25T01:36:22.296Z,14.70
2023-01-25T01:38:50.883Z,14.67
2023-01-25T01:41:19.722Z,14.77
2023-01-25T01:43:50.509Z,14.57
2023-01-25T01:46:25.123Z,14.70
2023-01-25T01:48:57.021Z,15.33
2023-01-25T01:51:34.899Z,16.77
2023-01-25T01:54:09.512Z,15.53
2023-01-25T01:56:41.544Z,15.43
2023-01-25T01:59:11.092Z,15.37
2023-01-25T02:01:39.356Z,15.23
2023-01-25T02:04:09.664Z,14.47
2023-01-25T02:06:48.496Z,14.67
2023-01-25T02:09:22.571Z,14.93
2023-01-25T02:11:52.732Z,13.30
2023-01-25T02:14:22.031Z,15.50
2023-01-25T02:16:50.074Z,13.77
2023-01-25T02:19:28.055Z,13.83
2023-01-25T02:22:00.813Z,14.30
2023-01-25T02:24:34.375Z,14.67
2023-01-25T02:27:03.795Z,14.57
2023-01-25T02:29:32.170Z,13.37
2023-01-25T02:32:01.311Z,14.63
2023-01-25T02:34:29.297Z,14.77
2023-01-25T02:36:57.366Z,14.77
2023-01-25T02:39:26.746Z,14.67
2023-01-25T02:41:54.998Z,14.87
2023-01-25T02:44:27.955Z,14.60
2023-01-25T02:46:57.198Z,15.03
2023-01-25T02:49:25.345Z,14.40
2023-01-25T02:51:57.428Z,13.87
2023-01-25T02:54:27.039Z,14.10
2023-01-25T02:56:56.108Z,14.17
2023-01-25T02:59:27.903Z,14.57
2023-01-25T03:01:59.421Z,14.20
2023-01-25T03:04:30.922Z,14.67
2023-01-25T03:06:58.952Z,14.43
2023-01-25T03:09:28.253Z,15.07
2023-01-25T03:12:00.099Z,14.37
2023-01-25T03:14:29.708Z,14.70
2023-01-25T03:16:58.012Z,13.23
2023-01-25T03:19:29.130Z,13.83
2023-01-25T03:21:59.009Z,14.40
2023-01-25T03:24:29.266Z,14.60
2023-01-25T03:27:20.239Z,14.87
2023-01-25T03:30:11.587Z,14.90
2023-01-25T03:32:39.478Z,14.07
2023-01-25T03:35:11.080Z,13.87
2023-01-25T03:37:39.461Z,13.97
2023-01-25T03:40:09.159Z,14.53
2023-01-25T03:42:38.104Z,14.03
2023-01-25T03:45:07.169Z,14.87
2023-01-25T03:47:37.378Z,14.33
2023-01-25T03:50:06.476Z,14.87
2023-01-25T03:52:38.589Z,14.10
2023-01-25T03:55:12.280Z,14.80
2023-01-25T03:57:43.042Z,14.87
2023-01-25T04:00:12.995Z,13.90
2023-01-25T04:02:48.559Z,13.87
2023-01-25T04:05:20.235Z,15.10
2023-01-25T04:07:49.362Z,13.87
2023-01-25T04:10:21.853Z,14.30
2023-01-25T04:12:50.732Z,13.80
2023-01-25T04:15:19.210Z,14.37
2023-01-25T04:17:48.707Z,13.90
2023-01-25T04:20:25.565Z,13.60
2023-01-25T04:22:55.711Z,12.83
2023-01-25T04:25:29.437Z,13.33
2023-01-25T04:27:59.234Z,12.33
2023-01-25T04:30:27.340Z,12.63
2023-01-25T04:32:58.209Z,11.73
2023-01-25T04:35:30.811Z,13.27
2023-01-25T04:38:01.183Z,10.17
2023-01-25T04:40:38.162Z,11.83
2023-01-25T04:43:07.541Z,12.63
2023-01-25T04:45:37.181Z,10.70
2023-01-25T04:48:13.822Z,11.50
2023-01-25T04:50:50.444Z,11.80
2023-01-25T04:53:23.474Z,11.47
2023-01-25T04:55:52.126Z,11.77
2023-01-25T04:58:20.114Z,11.63
2023-01-25T05:00:48.113Z,11.20
2023-01-25T05:03:17.425Z,11.60
2023-01-25T05:05:48.248Z,11.53
2023-01-25T05:08:20.788Z,12.10
2023-01-25T05:10:48.721Z,11.03
2023-01-25T05:13:36.988Z,11.17
2023-01-25T05:16:13.180Z,10.97
2023-01-25T05:18:48.943Z,10.33
2023-01-25T05:21:48.117Z,10.27
2023-01-25T05:24:16.477Z,11.27
2023-01-25T05:27:03.699Z,10.40
2023-01-25T05:30:08.885Z,10.50
2023-01-25T05:32:42.603Z,10.47
2023-01-25T05:35:14.465Z,11.07
2023-01-25T05:37:42.466Z,10.03
2023-01-25T05:40:16.800Z,10.90
2023-01-25T05:42:45.280Z,10.77
2023-01-25T05:45:18.387Z,10.13
2023-01-25T05:47:47.816Z,9.60
2023-01-25T05:50:19.265Z,9.40
2023-01-25T05:52:55.538Z,9.37
2023-01-25T05:55:23.554Z,9.20
2023-01-25T05:57:56.575Z,10.07
2023-01-25T06:00:25.026Z,9.77
2023-01-25T06:02:52.998Z,9.00
2023-01-25T06:05:26.419Z,9.50
2023-01-25T06:07:55.738Z,9.47
2023-01-25T06:10:26.445Z,8.83
2023-01-25T06:13:01.212Z,8.87
2023-01-25T06:15:29.177Z,9.50
2023-01-25T06:18:09.788Z,8.83
2023-01-25T06:20:51.275Z,10.13
2023-01-25T06:23:19.208Z,9.23
2023-01-25T06:25:47.015Z,9.53
2023-01-25T06:28:14.896Z,8.80
2023-01-25T06:30:42.881Z,9.80
2023-01-25T06:33:10.737Z,9.27
2023-01-25T06:35:40.288Z,9.77
2023-01-25T06:38:09.579Z,8.60
2023-01-25T06:40:37.506Z,9.57
2023-01-25T06:43:08.682Z,9.63
2023-01-25T06:45:36.893Z,9.77
2023-01-25T06:48:04.903Z,9.33
2023-01-25T06:50:32.867Z,9.30
2023-01-25T06:53:00.648Z,9.83
2023-01-25T06:55:29.892Z,8.93
2023-01-25T06:58:02.553Z,8.93
2023-01-25T07:00:30.656Z,9.90
2023-01-25T07:02:58.504Z,9.20
2023-01-25T07:05:26.391Z,9.97
2023-01-25T07:07:54.148Z,9.67
2023-01-25T07:10:22.003Z,9.00
2023-01-25T07:12:51.211Z,9.60
2023-01-25T07:15:19.131Z,9.47
2023-01-25T07:17:46.996Z,9.23
2023-01-25T07:20:14.928Z,8.90
2023-01-25T07:22:42.741Z,8.50
2023-01-25T07:25:11.418Z,8.80
2023-01-25T07:27:41.795Z,8.90
2023-01-25T07:30:12.729Z,8.93
2023-01-25T07:32:40.634Z,8.57
2023-01-25T07:35:09.449Z,8.87
2023-01-25T07:37:38.448Z,8.53
2023-01-25T07:40:07.007Z,8.07
2023-01-25T07:42:35.105Z,8.50
2023-01-25T07:45:15.514Z,8.33
2023-01-25T07:47:43.366Z,8.47
2023-01-25T07:50:12.562Z,8.03
2023-01-25T07:52:41.733Z,8.27
2023-01-25T07:55:10.626Z,8.83
2023-01-25T07:57:38.697Z,7.60
2023-01-25T08:00:09.954Z,8.40
2023-01-25T08:02:41.722Z,8.37
2023-01-25T08:05:10.917Z,8.13
2023-01-25T08:07:39.154Z,8.43
2023-01-25T08:10:08.189Z,8.23
2023-01-25T08:12:36.027Z,8.30
2023-01-25T08:15:04.824Z,7.43
2023-01-25T08:17:33.366Z,7.87
2023-01-25T08:20:04.510Z,7.77
2023-01-25T08:22:34.630Z,8.17
2023-01-25T08:25:03.553Z,7.90
2023-01-25T08:27:31.369Z,8.50
2023-01-25T08:29:59.197Z,8.43
2023-01-25T08:32:29.201Z,8.23
2023-01-25T08:34:57.362Z,7.80
2023-01-25T08:37:29.587Z,7.33
2023-01-25T08:39:59.962Z,8.07
2023-01-25T08:42:27.953Z,8.10
2023-01-25T08:44:57.029Z,7.73
2023-01-25T08:47:24.973Z,7.30
2023-01-25T08:49:55.414Z,8.37
2023-01-25T08:52:23.340Z,9.07
2023-01-25T08:54:52.549Z,8.50
2023-01-25T08:57:20.519Z,7.70
2023-01-25T08:59:48.770Z,8.30
2023-01-25T09:02:16.547Z,8.63
2023-01-25T09:04:46.651Z,8.20
2023-01-25T09:07:14.560Z,8.50
2023-01-25T09:09:42.594Z,8.37
2023-01-25T09:12:11.738Z,8.20
2023-01-25T09:14:41.791Z,8.60
2023-01-25T09:17:10.758Z,8.13
2023-01-25T09:19:38.632Z,8.43
2023-01-25T09:22:06.426Z,9.03
2023-01-25T09:24:36.995Z,8.93
2023-01-25T09:27:06.261Z,7.97
2023-01-25T09:29:36.773Z,8.93
2023-01-25T09:32:07.478Z,7.90
2023-01-25T09:34:44.930Z,8.70
2023-01-25T09:37:12.937Z,8.23
2023-01-25T09:39:40.851Z,8.07
2023-01-25T09:42:24.232Z,8.47
2023-01-25T09:45:06.780Z,9.50
2023-01-25T09:47:43.638Z,8.67
2023-01-25T09:50:33.115Z,8.37
2023-01-25T09:53:16.786Z,8.80
2023-01-25T09:55:45.583Z,9.97
2023-01-25T09:58:21.096Z,9.00
2023-01-25T10:00:54.064Z,8.57
2023-01-25T10:03:28.639Z,8.43
2023-01-25T10:06:00.898Z,8.90
2023-01-25T10:08:33.899Z,8.67
2023-01-25T10:11:09.090Z,9.20
2023-01-25T10:13:36.954Z,9.63
2023-01-25T10:16:24.569Z,9.70
2023-01-25T10:19:02.731Z,9.80
2023-01-25T10:21:35.582Z,9.57
2023-01-25T10:24:21.220Z,9.50
2023-01-25T10:26:56.723Z,10.03
2023-01-25T10:29:29.011Z,10.23
2023-01-25T10:32:12.253Z,10.43
2023-01-25T10:34:55.982Z,10.97
2023-01-25T10:37:28.615Z,10.37
2023-01-25T10:40:03.223Z,9.27
2023-01-25T10:42:38.408Z,10.10
2023-01-25T10:45:12.777Z,10.07
2023-01-25T10:47:45.007Z,9.27
2023-01-25T10:50:46.831Z,9.10
2023-01-25T10:53:36.411Z,9.73
2023-01-25T10:56:26.707Z,9.70
2023-01-25T10:59:08.428Z,10.40
2023-01-25T11:01:38.500Z,10.27
2023-01-25T11:04:25.012Z,10.13
2023-01-25T11:06:52.876Z,10.67
2023-01-25T11:09:36.062Z,10.70
2023-01-25T11:12:07.428Z,9.60
2023-01-25T11:14:35.436Z,9.47
2023-01-25T11:17:05.792Z,11.03
2023-01-25T11:19:37.719Z,11.03
2023-01-25T11:22:24.090Z,10.87
2023-01-25T11:24:52.071Z,10.87
2023-01-25T11:27:21.833Z,10.67
2023-01-25T11:30:10.268Z,10.70
2023-01-25T11:32:40.079Z,10.80
2023-01-25T11:35:15.309Z,11.57
2023-01-25T11:38:01.398Z,11.00
2023-01-25T11:40:38.357Z,10.63
2023-01-25T11:43:21.415Z,11.63
2023-01-25T11:46:06.677Z,11.30
2023-01-25T11:48:48.575Z,10.33
2023-01-25T11:51:25.969Z,10.40
2023-01-25T11:54:10.717Z,10.73
2023-01-25T11:56:52.736Z,10.00
2023-01-25T11:59:38.077Z,12.53
2023-01-25T12:02:20.601Z,15.93
2023-01-25T12:05:12.599Z,10.90
2023-01-25T12:07:52.604Z,11.97
2023-01-25T12:10:30.195Z,12.63
2023-01-25T12:13:06.428Z,13.73
2023-01-25T12:15:55.878Z,11.03
2023-01-25T12:18:42.645Z,11.37
2023-01-25T12:21:31.343Z,11.13
2023-01-25T12:24:14.440Z,11.83
2023-01-25T12:26:50.755Z,10.87
2023-01-25T12:29:27.495Z,10.23
2023-01-25T12:32:01.417Z,10.60
2023-01-25T12:34:36.847Z,10.67
2023-01-25T12:37:13.480Z,10.43
2023-01-25T12:39:49.274Z,11.00
2023-01-25T12:42:21.574Z,10.77
2023-01-25T12:44:54.892Z,11.30
2023-01-25T12:47:29.343Z,11.67
2023-01-25T12:50:05.826Z,10.90
2023-01-25T12:52:36.335Z,11.57
2023-01-25T12:55:07.559Z,11.70
2023-01-25T12:57:43.153Z,12.20
2023-01-25T13:00:21.754Z,12.57
2023-01-25T13:03:07.994Z,12.73
2023-01-25T13:05:42.005Z,13.13
2023-01-25T13:08:31.108Z,12.73
2023-01-25T13:11:10.922Z,11.20
2023-01-25T13:13:39.084Z,12.53
2023-01-25T13:16:36.170Z,11.87
2023-01-25T13:19:04.302Z,11.63
2023-01-25T13:21:45.137Z,12.70
2023-01-25T13:24:18.933Z,13.43
2023-01-25T13:27:24.757Z,13.23
2023-01-25T13:30:00.718Z,11.73
2023-01-25T13:33:06.409Z,12.60
2023-01-25T13:35:40.362Z,12.53
2023-01-25T13:38:35.735Z,13.57
2023-01-25T13:41:16.898Z,12.53
2023-01-25T13:44:13.027Z,13.97
2023-01-25T13:46:40.846Z,14.73
2023-01-25T13:49:22.372Z,13.60
2023-01-25T13:51:50.386Z,14.63
2023-01-25T13:54:18.642Z,14.30
2023-01-25T13:56:46.671Z,12.93
2023-01-25T13:59:27.736Z,13.97
2023-01-25T14:01:57.253Z,13.23
2023-01-25T14:04:25.627Z,12.93
2023-01-25T14:06:58.918Z,11.77
2023-01-25T14:09:26.953Z,13.50
2023-01-25T14:11:57.606Z,14.13
2023-01-25T14:14:28.973Z,13.73
2023-01-25T14:17:17.252Z,13.77
2023-01-25T14:19:49.674Z,13.70
2023-01-25T14:22:23.363Z,13.50
2023-01-25T14:25:13.015Z,14.10
2023-01-25T14:27:47.667Z,14.17
2023-01-25T14:30:26.486Z,14.67
2023-01-25T14:32:58.570Z,14.30
2023-01-25T14:35:49.614Z,14.37
2023-01-25T14:38:26.418Z,14.83
2023-01-25T14:40:58.027Z,13.70
2023-01-25T14:43:27.630Z,14.47
2023-01-25T14:45:57.756Z,15.73
2023-01-25T14:48:36.635Z,12.77
2023-01-25T14:51:10.710Z,15.37
2023-01-25T14:53:42.348Z,14.13
2023-01-25T14:56:20.717Z,14.43
2023-01-25T14:58:59.027Z,14.20
2023-01-25T15:01:34.191Z,16.80
2023-01-25T15:04:02.582Z,14.57
2023-01-25T15:06:30.842Z,12.63
2023-01-25T15:08:59.055Z,14.70
2023-01-25T15:11:38.821Z,14.63
2023-01-25T15:14:18.276Z,12.23
2023-01-25T15:16:48.006Z,14.37
2023-01-25T15:19:23.969Z,14.90
2023-01-25T15:21:52.327Z,14.77
2023-01-25T15:24:20.578Z,15.23
2023-01-25T15:26:52.144Z,14.73
2023-01-25T15:29:22.884Z,15.70
2023-01-25T15:31:52.886Z,14.27
2023-01-25T15:34:25.124Z,15.67
2023-01-25T15:36:53.731Z,15.20
2023-01-25T15:39:23.481Z,15.23
2023-01-25T15:41:51.731Z,16.00
2023-01-25T15:44:20.515Z,15.50
2023-01-25T15:46:53.711Z,15.33
2023-01-25T15:49:26.346Z,17.13
2023-01-25T15:51:55.201Z,15.63
2023-01-25T15:54:24.559Z,16.43
2023-01-25T15:56:56.138Z,16.57
2023-01-25T15:59:25.270Z,16.53
2023-01-25T16:01:55.425Z,15.40
2023-01-25T16:04:25.566Z,16.90
2023-01-25T16:06:57.477Z,17.53
2023-01-25T16:09:29.613Z,17.57
2023-01-25T16:12:00.574Z,15.13
2023-01-25T16:14:31.615Z,17.07
2023-01-25T16:17:05.981Z,18.13
2023-01-25T16:19:35.603Z,17.60
2023-01-25T16:22:03.830Z,17.50
2023-01-25T16:24:32.367Z,16.80
2023-01-25T16:27:02.441Z,18.03
2023-01-25T16:29:30.414Z,16.83
2023-01-25T16:31:59.715Z,18.90
2023-01-25T16:34:29.152Z,17.00
2023-01-25T16:36:59.770Z,16.93
2023-01-25T16:39:32.143Z,16.43
2023-01-25T16:42:01.951Z,16.40
2023-01-25T16:44:29.972Z,16.93
2023-01-25T16:46:58.434Z,15.70
2023-01-25T16:49:27.836Z,16.10
2023-01-25T16:51:58.203Z,15.87
2023-01-25T16:54:27.177Z,17.63
2023-01-25T16:56:56.127Z,17.63
2023-01-25T16:59:25.600Z,16.93
2023-01-25T17:01:53.763Z,17.57
2023-01-25T17:04:22.043Z,15.10
2023-01-25T17:06:53.066Z,15.70
2023-01-25T17:09:25.395Z,15.77
2023-01-25T17:11:54.142Z,16.60
2023-01-25T17:14:23.442Z,15.77
2023-01-25T17:16:53.762Z,15.57
2023-01-25T17:19:22.132Z,14.93
2023-01-25T17:21:50.163Z,14.30
2023-01-25T17:24:21.135Z,15.93
2023-01-25T17:26:56.968Z,15.03
2023-01-25T17:29:25.040Z,13.67
2023-01-25T17:31:54.558Z,14.57
2023-01-25T17:34:23.060Z,15.80
2023-01-25T17:36:52.772Z,15.83
2023-01-25T17:39:22.854Z,15.80
2023-01-25T17:41:53.371Z,15.80
2023-01-25T17:44:22.891Z,13.87
2023-01-25T17:46:51.862Z,11.93
2023-01-25T17:49:22.521Z,13.13
2023-01-25T17:51:50.675Z,12.27
2023-01-25T17:54:18.827Z,11.30
2023-01-25T17:56:46.758Z,15.50
2023-01-25T17:59:16.254Z,13.77
2023-01-25T18:01:45.478Z,14.50
2023-01-25T18:04:17.419Z,14.30
2023-01-25T18:06:45.329Z,14.50
2023-01-25T18:09:13.273Z,14.10
2023-01-25T18:11:42.029Z,13.13
2023-01-25T18:14:15.199Z,13.90
2023-01-25T18:16:45.105Z,14.50
2023-01-25T18:19:13.314Z,15.47
2023-01-25T18:21:42.455Z,15.93
2023-01-25T18:24:26.488Z,15.73
2023-01-25T18:27:00.479Z,16.03
2023-01-25T18:29:46.540Z,16.50
2023-01-25T18:32:16.604Z,16.17
2023-01-25T18:34:44.666Z,14.93
2023-01-25T18:37:21.805Z,15.20
2023-01-25T18:39:50.988Z,14.57
2023-01-25T18:42:19.975Z,15.87
2023-01-25T18:44:49.162Z,15.07
2023-01-25T18:47:20.038Z,13.90
2023-01-25T18:49:49.256Z,15.10
2023-01-25T18:52:18.460Z,14.73
2023-01-25T18:54:46.930Z,15.07
2023-01-25T18:57:18.211Z,14.60
2023-01-25T18:59:46.334Z,15.57
2023-01-25T19:02:16.678Z,15.10
2023-01-25T19:04:46.568Z,16.03
2023-01-25T19:07:14.990Z,14.83
2023-01-25T19:09:43.704Z,15.50
2023-01-25T19:12:11.914Z,16.77
2023-01-25T19:14:40.385Z,15.90
2023-01-25T19:17:09.042Z,13.93
2023-01-25T19:19:37.446Z,15.47
2023-01-25T19:22:06.964Z,13.83
2023-01-25T19:24:37.474Z,15.03
2023-01-25T19:27:05.479Z,14.43
2023-01-25T19:29:33.442Z,16.57
2023-01-25T19:32:01.281Z,16.93
2023-01-25T19:34:31.441Z,18.00
2023-01-25T19:36:59.391Z,17.40
2023-01-25T19:39:29.125Z,18.50
2023-01-25T19:41:57.038Z,15.83
2023-01-25T19:44:25.330Z,14.73
2023-01-25T19:46:53.307Z,16.97
2023-01-25T19:49:22.362Z,14.60
2023-01-25T19:51:53.068Z,15.77
2023-01-25T19:54:21.753Z,16.77
2023-01-25T19:56:51.207Z,16.33
2023-01-25T19:59:21.151Z,14.97
2023-01-25T20:01:49.303Z,15.00
2023-01-25T20:04:19.764Z,15.03
2023-01-25T20:06:47.908Z,16.37
2023-01-25T20:09:17.490Z,16.53
2023-01-25T20:11:48.679Z,16.77
2023-01-25T20:14:18.258Z,16.67
2023-01-25T20:16:47.054Z,14.77
2023-01-25T20:19:15.094Z,16.23
2023-01-25T20:21:43.041Z,15.43
2023-01-25T20:24:11.275Z,15.30
2023-01-25T20:26:42.987Z,17.43
2023-01-25T20:29:12.265Z,15.13
2023-01-25T20:31:43.203Z,16.13
2023-01-25T20:34:14.290Z,15.37
2023-01-25T20:36:42.976Z,14.40
2023-01-25T20:39:13.900Z,15.13
2023-01-25T20:41:42.391Z,16.23
2023-01-25T20:44:12.429Z,15.90
2023-01-25T20:46:43.202Z,16.03
2023-01-25T20:49:17.732Z,16.00
2023-01-25T20:51:47.637Z,13.40
2023-01-25T20:54:16.255Z,13.87
2023-01-25T20:56:47.730Z,14.90
2023-01-25T20:59:19.524Z,15.73
2023-01-25T21:01:50.314Z,15.60
2023-01-25T21:04:18.326Z,15.57
2023-01-25T21:06:46.189Z,14.80
2023-01-25T21:09:15.139Z,14.40
2023-01-25T21:11:43.431Z,15.57
2023-01-25T21:14:11.446Z,18.13
2023-01-25T21:16:42.346Z,16.50
2023-01-25T21:19:11.810Z,17.33
2023-01-25T21:21:40.738Z,16.90
2023-01-25T21:24:12.087Z,16.37
2023-01-25T21:26:39.994Z,16.07
2023-01-25T21:29:08.373Z,16.13
2023-01-25T21:31:38.213Z,16.23
2023-01-25T21:34:09.174Z,17.43
2023-01-25T21:36:38.514Z,15.70
2023-01-25T21:39:07.767Z,17.10
2023-01-25T21:41:35.801Z,17.40
2023-01-25T21:44:21.589Z,18.93
2023-01-25T21:47:19.555Z,17.87
2023-01-25T21:49:57.606Z,19.00
2023-01-25T21:52:26.899Z,17.87
2023-01-25T21:54:54.745Z,15.93
2023-01-25T21:57:22.809Z,15.60
2023-01-25T21:59:52.611Z,17.37
2023-01-25T22:02:21.985Z,15.37
2023-01-25T22:04:50.014Z,16.67
2023-01-25T22:07:17.923Z,18.07
2023-01-25T22:09:49.390Z,19.00
2023-01-25T22:12:17.301Z,19.13
2023-01-25T22:14:47.291Z,19.80
2023-01-25T22:17:15.093Z,22.10
2023-01-25T22:19:43.060Z,20.40
2023-01-25T22:22:10.877Z,18.13
2023-01-25T22:24:38.740Z,19.30
2023-01-25T22:27:28.960Z,21.40
2023-01-25T22:29:56.763Z,22.43
2023-01-25T22:32:24.971Z,23.57
2023-01-25T22:34:52.987Z,22.03
2023-01-25T22:37:20.867Z,22.30
2023-01-25T22:39:49.098Z,23.77
2023-01-25T22:42:18.314Z,21.50
2023-01-25T22:44:46.276Z,20.70
2023-01-25T22:47:14.140Z,23.57
2023-01-25T22:49:42.030Z,22.50
2023-01-25T22:52:09.940Z,19.63
2023-01-25T22:54:37.904Z,21.37
2023-01-25T22:57:11.771Z,22.23
2023-01-25T22:59:41.011Z,20.83
2023-01-25T23:02:08.911Z,22.43
2023-01-25T23:04:36.815Z,22.67
2023-01-25T23:07:12.729Z,19.43
2023-01-25T23:09:41.394Z,21.00
2023-01-25T23:12:09.445Z,20.97
2023-01-25T23:14:54.109Z,20.97
2023-01-25T23:17:42.300Z,23.07
2023-01-25T23:20:12.821Z,23.27
2023-01-25T23:22:41.715Z,21.30
2023-01-25T23:25:11.603Z,23.47
2023-01-25T23:27:39.799Z,23.70
2023-01-25T23:30:10.262Z,23.67
2023-01-25T23:32:46.004Z,23.03
2023-01-25T23:35:14.081Z,21.67
2023-01-25T23:37:42.119Z,22.00
2023-01-25T23:40:12.388Z,23.60
2023-01-25T23:42:40.913Z,19.87
2023-01-25T23:45:10.715Z,24.13
2023-01-25T23:47:40.315Z,20.50
2023-01-25T23:50:12.129Z,20.83
2023-01-25T23:52:40.451Z,19.47
2023-01-25T23:55:09.264Z,22.57
2023-01-25T23:57:37.144Z,20.53
